Time;durP1;ratioP1;P1;durP2;ratioP2;P2;SDS_P1;SDS_P2;PMS_P1;PMS_P2;Temp;Humidity;BMP_temperature;BMP_pressure;BME280_temperature;BME280_humidity;BME280_pressure;Samples;Min_cycle;Max_cycle;Signal;HPM_P1;HPM_P2
2024/03/28 00:02:22;;;;;;;3.50;2.50;;;6.80;79.00;;;;;;4994127;28;20230;-73
2024/03/28 00:04:48;;;;;;;3.70;2.37;;;6.80;79.20;;;;;;5006515;28;20193;-72
2024/03/28 00:07:14;;;;;;;4.00;2.60;;;6.80;79.00;;;;;;5003279;28;20201;-71
2024/03/28 00:09:39;;;;;;;5.37;2.60;;;6.80;79.20;;;;;;5010179;28;20521;-73
2024/03/28 00:12:06;;;;;;;7.23;3.57;;;6.70;78.70;;;;;;4999393;28;20217;-71
2024/03/28 00:14:32;;;;;;;3.83;2.50;;;6.60;78.70;;;;;;5004120;28;20256;-72
2024/03/28 00:17:00;;;;;;;4.03;2.47;;;6.60;79.30;;;;;;5005951;28;20453;-70
2024/03/28 00:19:25;;;;;;;4.20;2.57;;;6.60;79.30;;;;;;5007340;28;20575;-73
2024/03/28 00:21:51;;;;;;;3.70;2.20;;;6.70;78.90;;;;;;5006527;28;20492;-72
2024/03/28 00:24:16;;;;;;;3.50;2.47;;;6.60;78.30;;;;;;5009430;28;20197;-72
2024/03/28 00:26:42;;;;;;;3.57;2.70;;;6.60;78.10;;;;;;5005207;28;20206;-70
2024/03/28 00:29:07;;;;;;;4.10;2.60;;;6.50;78.10;;;;;;5007260;28;20181;-72
2024/03/28 00:31:33;;;;;;;5.93;2.80;;;6.50;78.30;;;;;;5009562;28;20210;-72
2024/03/28 00:33:58;;;;;;;2.67;2.13;;;6.40;78.10;;;;;;5012922;28;20178;-72
2024/03/28 00:36:24;;;;;;;3.97;2.73;;;6.40;78.60;;;;;;5016874;28;20289;-70
2024/03/28 00:38:50;;;;;;;4.83;3.07;;;6.30;78.90;;;;;;5011483;28;20561;-71
2024/03/28 00:41:16;;;;;;;3.90;2.40;;;6.40;78.90;;;;;;5006950;28;20979;-72
2024/03/28 00:43:42;;;;;;;3.33;2.73;;;6.30;79.00;;;;;;5005971;28;20190;-70
2024/03/28 00:46:07;;;;;;;4.87;2.40;;;6.30;79.60;;;;;;5007694;28;20432;-73
2024/03/28 00:48:33;;;;;;;4.10;2.93;;;6.30;79.70;;;;;;5011121;28;20412;-73
2024/03/28 00:51:00;;;;;;;2.93;2.20;;;6.30;79.50;;;;;;5006764;28;20321;-71
2024/03/28 00:53:26;;;;;;;3.40;2.40;;;6.30;79.00;;;;;;5009593;28;20185;-72
2024/03/28 00:55:52;;;;;;;3.20;2.10;;;6.20;78.70;;;;;;5007314;28;20430;-72
2024/03/28 00:58:18;;;;;;;4.43;2.87;;;6.20;78.70;;;;;;5002972;28;20431;-72
2024/03/28 01:00:46;;;;;;;7.13;2.70;;;6.20;78.70;;;;;;5001375;28;20257;-72
2024/03/28 01:03:12;;;;;;;6.90;3.00;;;6.20;79.20;;;;;;5004645;28;20913;-70
2024/03/28 01:05:38;;;;;;;4.10;2.80;;;6.20;79.20;;;;;;5007763;28;20448;-72
2024/03/28 01:08:04;;;;;;;5.07;2.80;;;6.10;79.30;;;;;;5006981;28;20445;-71
2024/03/28 01:10:30;;;;;;;5.73;2.50;;;6.20;79.60;;;;;;5004953;28;20433;-73
2024/03/28 01:12:55;;;;;;;3.70;2.63;;;6.20;79.70;;;;;;5004742;28;20453;-71
2024/03/28 01:15:21;;;;;;;3.63;2.30;;;6.10;79.90;;;;;;5012015;28;20194;-73
2024/03/28 01:17:47;;;;;;;3.40;2.23;;;6.10;79.90;;;;;;5011389;28;20220;-71
2024/03/28 01:20:12;;;;;;;5.40;2.80;;;6.20;79.30;;;;;;5005129;28;20247;-70
2024/03/28 01:22:38;;;;;;;4.33;2.50;;;6.30;78.00;;;;;;5006771;28;20221;-71
2024/03/28 01:25:06;;;;;;;3.50;1.80;;;6.20;77.80;;;;;;5008494;28;20189;-71
2024/03/28 01:27:31;;;;;;;2.93;2.23;;;6.20;78.00;;;;;;5010345;28;20421;-71
2024/03/28 01:29:57;;;;;;;4.27;2.60;;;6.20;77.70;;;;;;5008519;28;20426;-70
2024/03/28 01:32:22;;;;;;;4.10;2.50;;;6.10;78.10;;;;;;5000381;28;20304;-71
2024/03/28 01:34:48;;;;;;;4.37;2.50;;;6.10;78.10;;;;;;5008491;28;20220;-72
2024/03/28 01:37:14;;;;;;;5.87;2.90;;;6.00;78.40;;;;;;5004213;28;20540;-72
2024/03/28 01:39:40;;;;;;;6.67;3.40;;;6.10;78.70;;;;;;5006329;28;20617;-71
2024/03/28 01:42:05;;;;;;;5.80;3.80;;;6.00;78.70;;;;;;5003887;28;20226;-72
2024/03/28 01:44:31;;;;;;;3.70;2.60;;;6.10;79.00;;;;;;5010820;28;20417;-72
2024/03/28 01:46:58;;;;;;;5.13;3.17;;;6.00;78.70;;;;;;5005961;28;20678;-72
2024/03/28 01:49:27;;;;;;;3.93;2.90;;;6.00;78.60;;;;;;5001152;28;20190;-72
2024/03/28 01:51:54;;;;;;;5.30;3.00;;;5.90;78.90;;;;;;5005459;28;20475;-71
2024/03/28 01:54:20;;;;;;;4.30;2.70;;;5.90;79.30;;;;;;5003975;28;20414;-71
2024/03/28 01:56:47;;;;;;;5.40;2.90;;;6.00;78.70;;;;;;5003267;28;20429;-72
2024/03/28 01:59:15;;;;;;;3.40;2.70;;;5.90;78.60;;;;;;5002075;28;20422;-72
2024/03/28 02:01:44;;;;;;;4.57;2.50;;;5.90;79.00;;;;;;4994387;28;20578;-71
2024/03/28 02:04:10;;;;;;;4.87;2.90;;;5.90;79.00;;;;;;5008263;28;20421;-71
2024/03/28 02:06:36;;;;;;;4.40;3.00;;;5.90;79.50;;;;;;5010482;28;20772;-72
2024/03/28 02:09:05;;;;;;;7.70;2.97;;;5.80;79.50;;;;;;5005255;28;20428;-74
2024/03/28 02:11:33;;;;;;;6.10;3.00;;;5.70;79.60;;;;;;5000312;28;20547;-71
2024/03/28 02:14:02;;;;;;;4.60;2.60;;;5.70;79.90;;;;;;5001328;28;20523;-71
2024/03/28 02:16:34;;;;;;;3.70;2.67;;;5.60;79.90;;;;;;5009896;28;20440;-71
2024/03/28 02:19:00;;;;;;;4.67;3.03;;;5.60;80.20;;;;;;5008375;28;21353;-72
2024/03/28 02:21:25;;;;;;;4.70;2.50;;;5.60;80.20;;;;;;5007219;28;20476;-72
2024/03/28 02:23:51;;;;;;;4.93;3.33;;;5.60;80.00;;;;;;5007334;28;20547;-72
2024/03/28 02:26:19;;;;;;;4.30;3.00;;;5.50;80.00;;;;;;5006531;28;20237;-73
2024/03/28 02:28:45;;;;;;;5.03;3.20;;;5.40;80.50;;;;;;5010083;28;20504;-71
2024/03/28 02:31:11;;;;;;;5.43;2.80;;;5.30;80.90;;;;;;5003337;28;20457;-71
2024/03/28 02:33:37;;;;;;;4.80;3.03;;;5.30;81.20;;;;;;5008102;28;20432;-71
2024/03/28 02:36:03;;;;;;;5.17;3.07;;;5.20;81.40;;;;;;5010141;28;20694;-71
2024/03/28 02:38:29;;;;;;;4.97;3.00;;;5.20;81.70;;;;;;5003630;28;20443;-73
2024/03/28 02:40:55;;;;;;;3.70;2.60;;;5.20;81.40;;;;;;5004333;28;20497;-71
2024/03/28 02:43:20;;;;;;;4.13;2.80;;;5.20;81.70;;;;;;5010542;28;20883;-72
2024/03/28 02:45:46;;;;;;;5.33;2.60;;;5.20;81.70;;;;;;5007236;28;20248;-72
2024/03/28 02:48:12;;;;;;;7.27;2.73;;;5.20;81.70;;;;;;5010871;28;20201;-70
2024/03/28 02:50:38;;;;;;;5.50;3.40;;;5.20;81.70;;;;;;5004457;28;20190;-69
2024/03/28 02:53:04;;;;;;;6.20;3.00;;;5.10;81.70;;;;;;5005143;28;20861;-74
2024/03/28 02:55:29;;;;;;;3.93;2.80;;;5.10;81.70;;;;;;5003085;28;20225;-70
2024/03/28 02:57:55;;;;;;;5.00;3.10;;;5.10;81.70;;;;;;4999179;28;20182;-72
2024/03/28 03:00:20;;;;;;;3.77;2.67;;;5.20;81.20;;;;;;5002355;28;20197;-72
2024/03/28 03:02:46;;;;;;;4.13;2.80;;;5.10;80.90;;;;;;5003558;28;20213;-70
2024/03/28 03:05:11;;;;;;;4.30;2.87;;;5.00;81.10;;;;;;5007195;28;20185;-70
2024/03/28 03:07:37;;;;;;;3.77;2.70;;;4.90;81.70;;;;;;5000365;28;20187;-70
2024/03/28 03:10:03;;;;;;;5.97;2.77;;;4.90;81.90;;;;;;5005100;28;20189;-71
2024/03/28 03:12:28;;;;;;;4.57;2.50;;;4.80;82.10;;;;;;5001652;28;20208;-71
2024/03/28 03:14:54;;;;;;;5.20;3.17;;;4.80;82.20;;;;;;5005017;28;20433;-73
2024/03/28 03:17:19;;;;;;;6.77;3.33;;;4.70;82.50;;;;;;5009253;28;20542;-71
2024/03/28 03:19:45;;;;;;;4.20;3.00;;;4.70;82.70;;;;;;5008390;28;20177;-71
2024/03/28 03:22:14;;;;;;;4.67;3.27;;;4.70;82.70;;;;;;5001745;28;20228;-71
2024/03/28 03:24:41;;;;;;;3.30;2.63;;;4.60;83.10;;;;;;5007251;28;20188;-69
2024/03/28 03:27:16;;;;;;;5.97;3.07;;;4.60;83.40;;;;;;5003006;28;20435;-70
2024/03/28 03:35:10;;;;;;;4.27;2.60;;;4.70;83.40;;;;;;5004397;28;20425;-71
2024/03/28 03:37:36;;;;;;;5.20;2.90;;;4.70;82.80;;;;;;5005563;28;20426;-70
2024/03/28 03:40:05;;;;;;;7.67;2.70;;;4.70;82.50;;;;;;5004522;28;20272;-71
2024/03/28 03:42:31;;;;;;;3.80;2.70;;;4.60;82.40;;;;;;5009944;28;20479;-72
2024/03/28 03:44:56;;;;;;;3.90;2.97;;;4.60;82.40;;;;;;5013755;28;20421;-70
2024/03/28 03:47:22;;;;;;;5.97;3.00;;;4.60;82.70;;;;;;5013538;28;20217;-71
2024/03/28 03:49:49;;;;;;;4.20;3.47;;;4.50;82.70;;;;;;5009200;28;20186;-69
2024/03/28 03:52:15;;;;;;;4.87;2.90;;;4.60;82.70;;;;;;5000654;28;20215;-71
2024/03/28 03:54:41;;;;;;;4.93;3.03;;;4.60;82.40;;;;;;5008536;28;20479;-71
2024/03/28 03:57:07;;;;;;;4.43;2.83;;;4.60;82.20;;;;;;5009237;28;20236;-73
2024/03/28 03:59:33;;;;;;;9.40;4.07;;;4.70;82.10;;;;;;5009605;28;20421;-72
2024/03/28 04:01:59;;;;;;;4.70;3.30;;;4.70;81.80;;;;;;4999740;28;20992;-72
2024/03/28 04:04:25;;;;;;;4.83;3.00;;;4.60;81.80;;;;;;5007276;28;20487;-72
2024/03/28 04:06:51;;;;;;;6.00;3.50;;;4.60;81.80;;;;;;5006159;28;20462;-71
2024/03/28 04:09:17;;;;;;;5.17;3.53;;;4.70;81.50;;;;;;5013190;28;20221;-72
2024/03/28 04:11:46;;;;;;;4.27;3.03;;;4.70;81.40;;;;;;5004802;28;20464;-70
2024/03/28 04:14:11;;;;;;;6.50;3.83;;;4.60;81.10;;;;;;5013101;28;20442;-71
2024/03/28 04:16:37;;;;;;;4.90;3.40;;;4.60;81.20;;;;;;5011250;28;20951;-71
2024/03/28 04:19:02;;;;;;;6.00;3.57;;;4.60;81.50;;;;;;5009872;28;20606;-71
2024/03/28 04:21:29;;;;;;;14.33;4.30;;;4.60;81.80;;;;;;5008084;28;20225;-71
2024/03/28 04:23:56;;;;;;;6.97;3.77;;;4.50;81.70;;;;;;5006748;28;20186;-70
2024/03/28 04:26:22;;;;;;;6.33;3.93;;;4.40;81.70;;;;;;5008460;28;20421;-71
2024/03/28 04:28:48;;;;;;;7.03;3.77;;;4.30;81.90;;;;;;5009644;28;20823;-72
2024/03/28 04:31:14;;;;;;;6.30;3.80;;;4.20;82.20;;;;;;5007152;28;20265;-72
2024/03/28 04:33:39;;;;;;;6.70;3.93;;;4.20;82.40;;;;;;5005554;28;20432;-72
2024/03/28 04:36:05;;;;;;;5.17;3.40;;;4.20;82.40;;;;;;5006642;28;20674;-71
2024/03/28 04:38:31;;;;;;;7.47;4.13;;;4.20;82.40;;;;;;5010220;28;20182;-71
2024/03/28 04:40:57;;;;;;;6.27;4.30;;;4.20;82.40;;;;;;5002235;28;20242;-71
2024/03/28 04:43:23;;;;;;;8.77;4.50;;;4.30;82.20;;;;;;5008930;28;20421;-71
2024/03/28 04:45:48;;;;;;;7.47;3.67;;;4.30;82.10;;;;;;5007670;28;20663;-71
2024/03/28 04:48:14;;;;;;;5.60;3.93;;;4.20;82.10;;;;;;5009288;28;20174;-71
2024/03/28 04:50:39;;;;;;;6.00;4.33;;;4.30;82.20;;;;;;5004786;28;20190;-70
2024/03/28 04:53:05;;;;;;;5.73;3.63;;;4.20;81.90;;;;;;5004125;28;20684;-71
2024/03/28 04:55:30;;;;;;;6.17;4.00;;;4.30;82.20;;;;;;5005229;28;20269;-71
2024/03/28 04:57:56;;;;;;;8.03;3.90;;;4.30;81.90;;;;;;5012594;28;20178;-71
2024/03/28 05:00:21;;;;;;;8.97;3.93;;;4.20;81.80;;;;;;5012838;28;20646;-72
2024/03/28 05:02:47;;;;;;;6.77;4.27;;;4.20;81.90;;;;;;5000338;28;20197;-70
2024/03/28 05:05:13;;;;;;;6.97;4.50;;;4.10;81.70;;;;;;5002692;28;20192;-71
2024/03/28 05:07:38;;;;;;;7.40;4.20;;;4.20;81.80;;;;;;5009693;28;20217;-73
2024/03/28 05:10:06;;;;;;;7.50;4.50;;;4.20;81.70;;;;;;5012160;28;20232;-71
2024/03/28 05:12:32;;;;;;;7.63;4.07;;;4.10;81.80;;;;;;5002394;28;20213;-71
2024/03/28 05:14:58;;;;;;;6.90;4.30;;;4.10;81.80;;;;;;5005831;28;20529;-70
2024/03/28 05:17:25;;;;;;;7.53;4.13;;;4.10;81.90;;;;;;5008506;28;20515;-72
2024/03/28 05:19:51;;;;;;;7.40;4.17;;;4.10;81.90;;;;;;5013898;28;20186;-69
2024/03/28 05:22:16;;;;;;;7.60;3.90;;;4.10;81.90;;;;;;4998680;28;20477;-71
2024/03/28 05:24:42;;;;;;;8.10;4.10;;;4.10;81.90;;;;;;5007157;28;20197;-71
2024/03/28 05:27:07;;;;;;;7.70;4.43;;;4.20;81.80;;;;;;5009293;28;20558;-73
2024/03/28 05:29:33;;;;;;;7.53;4.30;;;4.20;81.40;;;;;;5011524;28;20193;-70
2024/03/28 05:31:58;;;;;;;6.10;3.83;;;4.20;81.20;;;;;;5001571;28;20209;-71
2024/03/28 05:34:24;;;;;;;6.50;4.40;;;4.20;81.40;;;;;;5008252;28;20544;-71
2024/03/28 05:36:49;;;;;;;6.53;4.30;;;4.10;81.50;;;;;;5005151;28;20554;-71
2024/03/28 05:39:19;;;;;;;6.40;4.07;;;4.10;81.70;;;;;;5003171;28;20190;-71
2024/03/28 05:41:45;;;;;;;8.00;4.73;;;4.10;81.80;;;;;;4995982;28;20229;-71
2024/03/28 05:44:10;;;;;;;8.40;4.33;;;4.10;81.70;;;;;;5001574;28;20460;-71
2024/03/28 05:46:36;;;;;;;6.13;4.13;;;4.10;81.80;;;;;;5010032;28;20677;-71
2024/03/28 05:49:01;;;;;;;7.30;4.60;;;4.10;81.70;;;;;;5004365;28;21098;-71
2024/03/28 05:51:27;;;;;;;6.67;4.30;;;4.10;81.80;;;;;;4994190;28;20205;-71
2024/03/28 05:53:52;;;;;;;8.93;4.90;;;4.10;81.90;;;;;;5005520;28;20186;-72
2024/03/28 05:56:19;;;;;;;9.77;4.83;;;4.10;81.90;;;;;;5006083;28;20567;-72
2024/03/28 05:58:45;;;;;;;10.00;4.60;;;4.10;81.80;;;;;;5008585;28;20183;-72
2024/03/28 06:01:11;;;;;;;8.30;5.10;;;4.10;81.90;;;;;;5004731;28;20489;-70
2024/03/28 06:03:37;;;;;;;7.47;4.80;;;4.10;81.80;;;;;;5006473;28;20440;-73
2024/03/28 06:06:03;;;;;;;7.70;5.03;;;4.10;81.90;;;;;;5008153;28;20191;-71
2024/03/28 06:08:28;;;;;;;9.53;4.97;;;4.20;81.90;;;;;;5005125;28;20413;-70
2024/03/28 06:10:54;;;;;;;10.90;4.93;;;4.30;81.90;;;;;;5009221;28;20981;-71
2024/03/28 06:13:22;;;;;;;14.23;5.13;;;4.50;81.50;;;;;;5004916;28;20190;-71
2024/03/28 06:15:47;;;;;;;8.53;4.80;;;4.60;81.20;;;;;;5005583;28;20231;-70
2024/03/28 06:18:14;;;;;;;7.10;4.33;;;4.80;81.10;;;;;;5005135;28;20452;-73
2024/03/28 06:20:40;;;;;;;10.40;5.40;;;4.90;80.90;;;;;;5007252;28;20210;-73
2024/03/28 06:23:06;;;;;;;6.27;4.50;;;5.20;80.80;;;;;;4998526;28;20762;-69
2024/03/28 06:25:39;;;;;;;7.57;4.43;;;5.40;78.70;;;;;;5003062;28;20190;-71
2024/03/28 06:28:10;;;;;;;8.83;4.90;;;5.40;77.70;;;;;;5006056;28;20449;-71
2024/03/28 06:30:40;;;;;;;7.53;4.33;;;5.50;77.70;;;;;;5018531;28;20429;-71
2024/03/28 06:33:06;;;;;;;8.60;4.97;;;5.50;77.30;;;;;;4999230;28;20445;-72
2024/03/28 06:35:31;;;;;;;6.63;4.10;;;5.60;77.00;;;;;;5007059;28;21185;-70
2024/03/28 06:37:57;;;;;;;7.60;4.40;;;5.60;76.50;;;;;;5003992;28;20186;-69
2024/03/28 06:40:23;;;;;;;6.70;4.00;;;5.70;76.70;;;;;;5005106;28;20229;-70
2024/03/28 06:42:48;;;;;;;5.60;3.53;;;5.80;76.40;;;;;;5001431;28;20580;-70
2024/03/28 06:45:14;;;;;;;6.43;4.00;;;5.80;75.90;;;;;;5005997;28;20200;-70
2024/03/28 06:47:39;;;;;;;12.20;4.10;;;5.80;76.20;;;;;;5001467;28;20212;-70
2024/03/28 06:50:05;;;;;;;6.87;4.17;;;5.90;76.50;;;;;;5008875;28;20598;-71
2024/03/28 06:52:31;;;;;;;7.80;4.17;;;6.00;75.70;;;;;;5001205;28;20213;-70
2024/03/28 06:54:56;;;;;;;6.50;3.73;;;6.00;75.50;;;;;;4998071;28;20189;-70
2024/03/28 06:57:22;;;;;;;7.73;3.77;;;6.10;75.40;;;;;;5006575;28;20261;-71
2024/03/28 06:59:49;;;;;;;5.70;3.10;;;6.10;75.10;;;;;;5004505;28;20875;-72
2024/03/28 07:02:15;;;;;;;5.93;3.17;;;6.00;75.70;;;;;;5001217;28;20223;-72
2024/03/28 07:04:41;;;;;;;5.70;2.70;;;6.00;76.10;;;;;;5005204;28;20439;-73
2024/03/28 07:07:06;;;;;;;5.07;3.07;;;6.00;75.90;;;;;;5004990;28;20189;-71
2024/03/28 07:09:32;;;;;;;6.30;3.53;;;5.90;77.40;;;;;;5004837;28;21179;-71
2024/03/28 07:11:57;;;;;;;6.10;3.17;;;5.80;78.40;;;;;;4995993;28;20290;-72
2024/03/28 07:14:23;;;;;;;7.63;3.47;;;5.80;79.00;;;;;;5000661;28;20320;-71
2024/03/28 07:16:49;;;;;;;9.10;3.20;;;5.80;80.00;;;;;;5003260;28;20236;-71
2024/03/28 07:19:15;;;;;;;5.50;3.03;;;5.80;80.30;;;;;;5008001;28;20182;-71
2024/03/28 07:21:40;;;;;;;6.27;3.77;;;5.80;80.80;;;;;;5004148;28;20630;-71
2024/03/28 07:24:06;;;;;;;5.27;3.00;;;5.80;81.20;;;;;;5001504;28;20465;-72
2024/03/28 07:26:32;;;;;;;6.30;3.33;;;5.80;81.50;;;;;;5006929;28;20220;-71
2024/03/28 07:28:58;;;;;;;7.00;3.40;;;5.80;81.90;;;;;;5011012;28;20561;-72
2024/03/28 07:31:23;;;;;;;6.30;3.80;;;5.90;82.70;;;;;;5004023;28;20754;-73
2024/03/28 07:33:49;;;;;;;6.23;3.50;;;5.90;82.50;;;;;;5004345;28;20436;-72
2024/03/28 07:36:16;;;;;;;5.93;4.10;;;5.90;82.70;;;;;;5006561;28;20185;-71
2024/03/28 07:38:43;;;;;;;6.73;3.33;;;6.00;83.00;;;;;;5007728;28;20448;-70
2024/03/28 07:41:09;;;;;;;6.80;3.90;;;6.10;82.70;;;;;;5004081;28;20488;-73
2024/03/28 07:43:34;;;;;;;5.80;3.77;;;6.20;82.20;;;;;;5005802;28;20448;-72
2024/03/28 07:46:04;;;;;;;6.83;4.43;;;6.20;81.50;;;;;;5006556;28;20409;-72
2024/03/28 07:48:29;;;;;;;7.07;3.80;;;6.30;81.70;;;;;;5006529;28;20189;-68
2024/03/28 07:51:00;;;;;;;12.33;3.97;;;6.30;80.90;;;;;;5005654;28;20437;-70
2024/03/28 07:53:27;;;;;;;8.40;4.10;;;6.50;80.80;;;;;;5007280;28;20421;-71
2024/03/28 07:55:53;;;;;;;6.57;4.10;;;6.50;80.60;;;;;;5008563;28;20461;-70
2024/03/28 07:58:19;;;;;;;5.43;3.40;;;6.60;80.60;;;;;;5011186;28;20448;-72
2024/03/28 08:00:44;;;;;;;5.60;3.70;;;6.70;80.80;;;;;;5006561;28;20464;-68
2024/03/28 08:03:14;;;;;;;6.27;3.03;;;6.90;80.20;;;;;;5005096;28;20425;-72
2024/03/28 08:05:40;;;;;;;5.97;4.07;;;7.00;79.90;;;;;;5009243;28;20643;-73
2024/03/28 08:08:06;;;;;;;5.67;3.50;;;7.10;79.20;;;;;;5004145;28;20466;-71
2024/03/28 08:10:33;;;;;;;7.20;4.30;;;7.00;79.30;;;;;;5002714;28;20468;-73
2024/03/28 08:12:58;;;;;;;6.00;3.50;;;7.10;78.60;;;;;;5001531;28;20467;-71
2024/03/28 08:15:27;;;;;;;5.83;3.73;;;7.20;78.90;;;;;;5007047;28;20846;-72
2024/03/28 08:17:53;;;;;;;4.10;2.77;;;7.30;78.90;;;;;;5007222;28;20258;-72
2024/03/28 08:20:20;;;;;;;6.53;2.83;;;7.40;78.60;;;;;;5006330;28;21043;-72
2024/03/28 08:22:50;;;;;;;5.30;3.00;;;7.50;78.00;;;;;;4997909;28;20223;-72
2024/03/28 08:25:16;;;;;;;5.80;3.10;;;7.50;77.70;;;;;;5007515;28;20443;-73
2024/03/28 08:27:41;;;;;;;4.30;2.80;;;7.60;77.80;;;;;;5006454;28;20869;-69
2024/03/28 08:30:07;;;;;;;6.20;2.47;;;7.70;78.00;;;;;;5009401;28;20196;-71
2024/03/28 08:32:33;;;;;;;6.63;2.07;;;7.70;77.30;;;;;;5002855;28;20696;-73
2024/03/28 08:35:00;;;;;;;3.83;2.00;;;7.70;77.30;;;;;;5005671;28;20853;-72
2024/03/28 08:37:26;;;;;;;3.73;2.03;;;7.70;77.40;;;;;;5007966;28;20414;-73
2024/03/28 08:39:52;;;;;;;6.30;2.50;;;7.80;77.70;;;;;;5008946;28;20563;-73
2024/03/28 08:42:17;;;;;;;5.17;2.50;;;7.90;77.60;;;;;;5009221;28;20553;-73
2024/03/28 08:44:44;;;;;;;4.50;2.23;;;8.00;77.40;;;;;;5003847;28;20182;-73
2024/03/28 08:47:10;;;;;;;9.20;2.03;;;7.90;77.40;;;;;;5009332;28;20259;-72
2024/03/28 08:49:36;;;;;;;4.80;2.40;;;8.00;77.70;;;;;;5011729;28;20429;-73
2024/03/28 08:52:03;;;;;;;3.90;1.73;;;8.10;77.40;;;;;;5001418;28;20210;-72
2024/03/28 08:54:28;;;;;;;3.90;2.17;;;8.10;77.40;;;;;;5006823;28;20515;-73
2024/03/28 08:56:54;;;;;;;6.50;2.20;;;8.10;77.40;;;;;;5007531;28;20516;-71
2024/03/28 08:59:20;;;;;;;2.50;1.70;;;8.10;77.60;;;;;;5004709;28;20236;-73
2024/03/28 09:01:46;;;;;;;3.50;2.10;;;8.10;77.60;;;;;;5001058;28;20273;-71
2024/03/28 09:04:17;;;;;;;3.83;1.43;;;8.20;77.10;;;;;;5013028;28;20186;-71
2024/03/28 09:06:43;;;;;;;2.53;1.63;;;8.30;77.30;;;;;;5012639;28;20204;-71
2024/03/28 09:09:11;;;;;;;2.93;1.50;;;8.40;76.80;;;;;;5005503;28;20520;-73
2024/03/28 09:11:37;;;;;;;4.20;1.80;;;8.50;76.10;;;;;;4999774;28;20462;-72
2024/03/28 09:14:03;;;;;;;1.47;1.13;;;8.50;76.20;;;;;;5007228;28;20437;-72
2024/03/28 09:16:34;;;;;;;2.00;1.17;;;8.50;76.20;;;;;;5011598;28;20487;-71
2024/03/28 09:19:00;;;;;;;5.10;1.10;;;8.60;76.20;;;;;;5010860;28;20471;-73
2024/03/28 09:21:25;;;;;;;2.67;1.30;;;8.60;75.90;;;;;;5005751;28;20900;-72
2024/03/28 09:23:51;;;;;;;1.97;1.00;;;8.60;75.90;;;;;;5005615;28;20499;-73
2024/03/28 09:26:19;;;;;;;4.53;1.10;;;8.60;75.50;;;;;;5003949;28;20198;-73
2024/03/28 09:28:58;;;;;;;1.60;1.10;;;8.60;75.70;;;;;;5006501;28;20467;-72
2024/03/28 09:31:24;;;;;;;2.20;0.90;;;8.60;75.70;;;;;;5001449;28;21012;-71
2024/03/28 09:33:50;;;;;;;1.70;0.80;;;8.60;75.10;;;;;;5003633;28;20472;-70
2024/03/28 09:36:16;;;;;;;2.13;1.00;;;8.60;75.40;;;;;;5002646;28;20452;-72
2024/03/28 09:38:50;;;;;;;1.30;0.90;;;8.60;75.50;;;;;;4996121;28;20193;-71
2024/03/28 09:41:37;;;;;;;1.67;1.07;;;8.60;74.80;;;;;;5006395;28;21321;-72
2024/03/28 09:44:05;;;;;;;1.00;0.80;;;8.60;75.10;;;;;;5010692;28;20428;-72
2024/03/28 09:46:33;;;;;;;1.87;1.07;;;8.70;74.60;;;;;;5011925;28;20416;-73
2024/03/28 09:49:02;;;;;;;1.37;0.80;;;8.70;74.60;;;;;;5009171;28;20504;-72
2024/03/28 09:51:30;;;;;;;3.00;1.10;;;8.70;74.20;;;;;;5002808;28;20461;-71
2024/03/28 09:53:56;;;;;;;3.17;1.00;;;8.80;74.00;;;;;;5016092;28;20493;-72
2024/03/28 09:56:23;;;;;;;1.53;0.90;;;8.80;74.20;;;;;;5007752;28;20421;-72
2024/03/28 09:58:49;;;;;;;0.93;0.70;;;8.90;74.00;;;;;;5007905;28;20945;-71
2024/03/28 10:01:15;;;;;;;1.13;0.87;;;8.90;73.50;;;;;;5005054;28;20477;-72
2024/03/28 10:03:44;;;;;;;1.40;1.00;;;8.90;73.50;;;;;;5008258;28;20568;-72
2024/03/28 10:06:10;;;;;;;2.00;0.97;;;8.90;73.50;;;;;;5014872;28;20936;-71
2024/03/28 10:08:37;;;;;;;1.80;0.90;;;9.00;73.30;;;;;;5010551;28;20429;-72
2024/03/28 10:11:05;;;;;;;0.90;0.63;;;9.10;72.90;;;;;;5013739;28;20456;-72
2024/03/28 10:13:43;;;;;;;1.13;0.80;;;9.10;71.60;;;;;;5003884;28;20451;-72
2024/03/28 10:16:12;;;;;;;0.90;0.60;;;9.10;71.00;;;;;;5009935;28;20417;-72
2024/03/28 10:18:38;;;;;;;1.17;0.60;;;9.00;71.10;;;;;;5006970;28;20452;-73
2024/03/28 10:21:04;;;;;;;0.93;0.63;;;9.10;70.70;;;;;;5005304;28;21475;-72
2024/03/28 10:23:31;;;;;;;1.47;0.70;;;9.10;70.40;;;;;;5003342;28;20421;-73
2024/03/28 10:25:58;;;;;;;1.20;0.70;;;9.20;69.90;;;;;;5006920;28;20899;-73
2024/03/28 10:28:29;;;;;;;1.53;0.73;;;9.40;69.70;;;;;;5000674;28;20437;-73
2024/03/28 10:30:57;;;;;;;2.20;0.70;;;9.50;69.10;;;;;;5004971;28;20429;-73
2024/03/28 10:33:23;;;;;;;1.50;0.90;;;9.60;69.10;;;;;;5000796;28;20432;-74
2024/03/28 10:36:04;;;;;;;1.53;0.77;;;9.80;68.20;;;;;;5008038;28;20835;-71
2024/03/28 10:38:30;;;;;;;0.70;0.50;;;9.90;67.20;;;;;;5002105;28;20252;-71
2024/03/28 10:40:58;;;;;;;1.20;0.70;;;9.90;66.70;;;;;;5002807;28;20485;-73
2024/03/28 10:43:25;;;;;;;4.27;0.90;;;10.00;66.60;;;;;;5012213;28;20773;-70
2024/03/28 10:46:15;;;;;;;1.87;0.90;;;9.90;65.70;;;;;;5009145;28;20520;-70
2024/03/28 10:48:44;;;;;;;0.70;0.50;;;9.90;65.40;;;;;;5008649;28;20432;-72
2024/03/28 10:51:17;;;;;;;0.80;0.60;;;9.90;65.30;;;;;;5007523;28;20970;-71
2024/03/28 10:54:08;;;;;;;0.80;0.60;;;10.00;65.10;;;;;;5004321;28;20473;-70
2024/03/28 10:56:35;;;;;;;2.20;0.77;;;10.10;65.10;;;;;;5007987;28;20419;-72
2024/03/28 10:59:03;;;;;;;1.10;0.67;;;10.00;65.40;;;;;;5004419;28;20425;-70
2024/03/28 11:01:30;;;;;;;1.50;0.80;;;9.80;64.70;;;;;;5007426;28;20563;-72
2024/03/28 11:04:02;;;;;;;1.00;0.60;;;10.00;65.10;;;;;;5006040;28;20700;-71
2024/03/28 11:06:28;;;;;;;1.70;0.77;;;10.30;64.80;;;;;;5006690;28;20539;-71
2024/03/28 11:08:54;;;;;;;1.20;0.70;;;10.10;64.70;;;;;;5007104;28;20444;-72
2024/03/28 11:11:20;;;;;;;5.27;0.80;;;10.20;65.00;;;;;;5005575;28;20205;-71
2024/03/28 11:13:47;;;;;;;0.70;0.50;;;10.10;65.30;;;;;;5006173;28;20502;-73
2024/03/28 11:16:15;;;;;;;1.63;0.70;;;10.20;65.00;;;;;;5009344;28;20436;-72
2024/03/28 11:18:42;;;;;;;2.03;0.80;;;10.40;65.10;;;;;;5004515;28;20429;-71
2024/03/28 11:21:08;;;;;;;2.03;0.70;;;10.60;64.70;;;;;;5005586;28;20495;-72
2024/03/28 11:23:34;;;;;;;2.50;0.70;;;10.70;64.50;;;;;;5000649;28;20495;-72
2024/03/28 11:26:04;;;;;;;1.40;0.80;;;11.00;64.10;;;;;;5008571;28;20236;-72
2024/03/28 11:28:31;;;;;;;1.00;0.60;;;11.10;63.70;;;;;;5011879;28;20428;-71
2024/03/28 11:30:57;;;;;;;0.80;0.60;;;11.10;63.50;;;;;;5005548;28;20469;-73
2024/03/28 11:33:43;;;;;;;1.97;0.60;;;11.30;63.50;;;;;;5007568;28;20418;-72
2024/03/28 11:36:09;;;;;;;1.17;0.80;;;11.40;62.80;;;;;;5009384;28;20409;-73
2024/03/28 11:38:36;;;;;;;1.40;0.70;;;11.20;62.90;;;;;;5003650;28;20783;-72
2024/03/28 11:41:03;;;;;;;3.80;0.70;;;11.40;62.30;;;;;;5007975;28;20504;-73
2024/03/28 11:43:29;;;;;;;1.10;0.70;;;11.20;61.70;;;;;;5007859;28;20451;-72
2024/03/28 11:46:01;;;;;;;0.87;0.60;;;11.10;61.30;;;;;;5009889;28;20425;-71
2024/03/28 11:48:33;;;;;;;0.90;0.60;;;11.10;62.20;;;;;;5007922;28;20522;-74
2024/03/28 11:51:03;;;;;;;0.70;0.60;;;11.00;61.70;;;;;;5005785;28;21059;-70
2024/03/28 11:53:29;;;;;;;1.03;0.77;;;11.00;61.70;;;;;;5004430;28;20756;-72
2024/03/28 11:55:54;;;;;;;1.00;0.70;;;11.10;61.50;;;;;;5002772;28;20478;-72
2024/03/28 11:58:26;;;;;;;2.00;1.07;;;11.40;60.90;;;;;;5003492;28;20413;-72
2024/03/28 12:01:04;;;;;;;5.53;0.73;;;11.50;59.90;;;;;;5000984;28;20213;-70
2024/03/28 12:03:30;;;;;;;1.23;0.60;;;11.70;59.70;;;;;;5007696;28;20992;-72
2024/03/28 12:05:57;;;;;;;0.70;0.50;;;12.00;59.20;;;;;;5008398;28;20450;-73
2024/03/28 12:08:25;;;;;;;2.07;0.70;;;12.30;58.40;;;;;;5004118;28;20457;-71
2024/03/28 12:10:51;;;;;;;0.77;0.47;;;12.30;58.20;;;;;;5003135;28;20421;-70
2024/03/28 12:13:18;;;;;;;5.93;0.80;;;12.50;58.00;;;;;;5006840;28;20416;-71
2024/03/28 12:15:53;;;;;;;1.07;0.50;;;12.70;57.30;;;;;;5008335;28;20449;-72
2024/03/28 12:18:19;;;;;;;1.50;0.90;;;12.70;56.60;;;;;;5006578;28;20475;-72
2024/03/28 12:20:44;;;;;;;0.90;0.53;;;12.90;56.40;;;;;;5008229;28;20424;-70
2024/03/28 12:23:12;;;;;;;0.83;0.60;;;12.90;56.50;;;;;;5013000;28;20194;-72
2024/03/28 12:25:44;;;;;;;2.07;0.60;;;13.00;56.10;;;;;;5008485;28;20193;-73
2024/03/28 12:28:17;;;;;;;2.53;0.83;;;13.10;55.80;;;;;;5011112;28;20953;-74
2024/03/28 12:30:51;;;;;;;1.43;0.63;;;13.40;56.00;;;;;;5010894;28;20901;-72
2024/03/28 12:33:18;;;;;;;1.10;0.77;;;13.60;54.90;;;;;;5005565;28;20456;-71
2024/03/28 12:35:44;;;;;;;0.83;0.60;;;13.50;54.50;;;;;;5011691;28;20444;-73
2024/03/28 12:38:16;;;;;;;1.47;0.70;;;13.50;55.00;;;;;;5012047;28;20413;-71
2024/03/28 12:40:50;;;;;;;1.30;0.60;;;13.30;56.00;;;;;;5009783;28;20460;-70
2024/03/28 12:43:17;;;;;;;0.90;0.50;;;13.30;56.80;;;;;;4999387;28;20480;-71
2024/03/28 12:45:45;;;;;;;0.90;0.60;;;13.10;57.60;;;;;;5013356;28;20417;-71
2024/03/28 12:48:14;;;;;;;1.30;0.80;;;13.00;57.70;;;;;;5007217;28;20441;-71
2024/03/28 12:50:44;;;;;;;1.47;0.90;;;13.10;57.70;;;;;;5010524;28;20424;-72
2024/03/28 12:53:11;;;;;;;0.90;0.50;;;12.90;56.40;;;;;;5008310;28;20420;-74
2024/03/28 12:55:37;;;;;;;2.73;0.60;;;13.00;53.20;;;;;;5005990;28;20430;-70
2024/03/28 12:58:02;;;;;;;1.50;0.50;;;12.80;52.90;;;;;;5007937;28;20428;-71
2024/03/28 13:00:28;;;;;;;0.70;0.50;;;13.00;53.40;;;;;;5003991;28;20416;-71